Kaélé Airport

FKKH · Far North, 喀麦隆

使用的METAR站距离机场45 km。
罗盘
风向 的 Kaélé Airport 10/28
风: 2 kt, 1 beaufort


2 kt
改变
0 ft 1.000 2.000 3.000 4.000 5.000
Cloud Cloud Cloud Cloud
SCT 2.000
Cloud Cloud
FEW 2.500
METAR FKKL 151100Z VRB02KT 9999 SCT020 FEW025CB 31/24 Q1015

METAR Kaélé Airport - FKKH/KLE

Kaélé Airport是,喀麦隆中的小机场。 该机场位于纬度10,09295和经度14,44451。 该机场有一条跑道: 10/28. 本场的ICAO机场代码为FKKH。 该机场的IATA代码为KLE。 机场在N Djamena FIR中。

该航空气象观测是针对Salak Airport在2024年7月15日 12:00, 当地时间进行的。

机场观察

可变方向的风很小或没有风。

可见度为10 km 或者更多。

有疏云,零星散落的云朵在2.000 ft的高度 和 几云 积雨云在2.500 ft的高度。 没有观察到天花板。

温度和风寒是31 °C。 热指数为37。 露点为24 °C,相对湿度为66%。 海平面上的气压为1015 hPa (QNH)。

白天

今天,太阳从05:48升起,在18:27降落。 这适用于Kaélé Airport,世界夏令时可能有所不同。 当地时间与世界标准时间之间的时差为+1 小时。 夏令时目前正在进行中。

公司介绍

我们没有关于这个机场的公司信息。

体会

到Vliegles.nl去找飞行课程,跳伞和其他飞行体验。 浏览页面,了解Kaélé Airport附近所有可用的活动。 你也可以使用搜索功能来寻找你所在地附近的特定飞行课程、跳伞或其他飞行体验。

跑道

Id 标题 侧风 逆风 侧风 %
10/28 100°-280° 2 kt 98 %

逆风成分最大的方向会被突出显示,并用于横风计算。 这并不一定意味着这个方向在使用。

乌云

2.000 ft SCT 疏云,零星散落的云朵
2.500 ft FEW 几云 积雨云

温度 & 天气

温度 31 °C
露点 24 °C
相对湿度 66%
热度指数 37 °C
Kp-index 1 (0-9)

白天

日出
05:48
中午
12:09
日落
18:29 (5:32)

小工具

你想在你的网站上有一个关于Kaélé Airport的当前航空天气(METAR)的小部件吗?

显示HTML代码
报告变更